Flight Track Log - Related Links

Times and Time Zones

All times are in EDT time to prevent confusion due to time zone crossing. See the SKQ221 flight status page for this flight to view local times or setup timezone preferences in your user account.

Time Position Orientation Groundspeed Altitude Reporting Facility
EDT Latitude Longitude Course Direction KTS MPH feet Rate Location/Type
Wed 11:22:37 PM 42.1333 -87.8833 66° East 139 160 1,400  Level Chicago TRACON
Wed 11:23:31 PM 42.1500 -87.8333 66° East 149 171 2,200 727 Climbing Chicago TRACON
Wed 11:24:16 PM 42.1633 -87.8089 54° Northeast 151 174 2,600 729 Climbing Chicago Center
Wed 11:25:18 PM 42.1617 -87.7542 92° East 147 169 3,500 780 Climbing Chicago Center
Wed 11:26:19 PM 42.1583 -87.6981 95° East 148 170 4,200 689 Climbing Chicago Center
Wed 11:27:20 PM 42.1581 -87.6389 90° East 153 176 4,900 738 Climbing Chicago Center
Wed 11:28:21 PM 42.1397 -87.5775 112° Southeast 148 170 5,700 541 Climbing Chicago Center
Wed 11:29:22 PM 42.1183 -87.5267 120° Southeast 155 178 6,000 220 Climbing Chicago Center
Wed 11:29:43 PM 42.1000 -87.5000 133° Southeast 169 194 6,000  Level Chicago TRACON
Wed 11:30:37 PM 42.0833 -87.4500 114° Southeast 177 204 6,000  Level Chicago TRACON
Wed 11:31:38 PM 42.0667 -87.4000 114° Southeast 179 206 6,000  Level Chicago TRACON
Wed 11:32:25 PM 42.0456 -87.3567 123° Southeast 176 203 6,000 -56 Level Chicago Center
Wed 11:33:26 PM 42.0211 -87.2989 120° Southeast 176 203 5,900 -50 Descending Chicago Center
Wed 11:34:26 PM 41.9956 -87.2403 120° Southeast 180 207 5,900  Level Chicago Center
Wed 11:35:27 PM 41.9714 -87.1842 120° Southeast 175 201 5,900  Level Chicago Center
Wed 11:36:29 PM 41.9469 -87.1269 120° Southeast 175 201 5,900  Level Chicago Center
Wed 11:37:29 PM 41.9219 -87.0686 120° Southeast 178 205 5,900 198 Level Chicago Center
Wed 11:38:30 PM 41.8917 -87.0003 121° Southeast 179 206 6,300 492 Climbing Chicago Center
Wed 11:39:31 PM 41.8683 -86.9453 120° Southeast 173 199 6,900 344 Climbing Chicago Center
Wed 11:40:32 PM 41.8436 -86.8881 120° Southeast 175 201 7,000 49 Climbing Chicago Center
Wed 11:41:33 PM 41.8175 -86.8281 120° Southeast 183 211 7,000  Level Chicago Center
Wed 11:42:34 PM 41.7919 -86.7681 120° Southeast 185 213 7,000  Level Chicago Center
Wed 11:43:34 PM 41.7642 -86.7081 122° Southeast 188 216 7,000  Level Chicago Center
Wed 11:44:35 PM 41.7378 -86.6461 120° Southeast 187 215 7,000  Level Chicago Center
Wed 11:45:36 PM 41.7114 -86.5850 120° Southeast 188 216 7,000  Level Chicago Center
Wed 11:46:37 PM 41.6867 -86.5269 120° Southeast 182 209 7,000  Level Chicago Center
Wed 11:47:38 PM 41.6603 -86.4669 120° Southeast 184 212 7,000  Level Chicago Center
Wed 11:48:39 PM 41.6342 -86.4094 121° Southeast 182 209 7,000  Level Chicago Center
Wed 11:49:39 PM 41.6097 -86.3508 119° Southeast 181 208 7,000  Level Chicago Center
Wed 11:50:40 PM 41.5844 -86.2936 121° Southeast 179 206 7,000  Level Chicago Center
Wed 11:51:41 PM 41.5597 -86.2369 120° Southeast 175 201 7,000  Level Chicago Center
Wed 11:52:42 PM 41.5339 -86.1789 121° Southeast 179 206 7,000  Level Chicago Center
Wed 11:53:43 PM 41.5083 -86.1233 122° Southeast 176 203 7,000  Level Chicago Center
Wed 11:54:44 PM 41.4783 -86.0547 120° Southeast 178 205 7,000  Level Chicago Center
Wed 11:55:44 PM 41.4531 -85.9986 121° Southeast 177 204 7,000  Level Chicago Center
Wed 11:56:45 PM 41.4283 -85.9406 120° Southeast 180 207 7,000  Level Chicago Center
Wed 11:57:46 PM 41.4028 -85.8856 122° Southeast 176 203 7,000  Level Chicago Center
Wed 11:58:46 PM 41.3783 -85.8308 121° Southeast 173 199 7,000  Level Chicago Center
Wed 11:59:47 PM 41.3544 -85.7764 120° Southeast 172 198 7,000  Level Chicago Center
Thu 12:00:48 AM 41.3294 -85.7211 121° Southeast 174 200 7,000  Level Chicago Center
Thu 12:01:48 AM 41.3053 -85.6675 121° Southeast 171 197 7,000  Level Chicago Center
Thu 12:02:49 AM 41.2808 -85.6119 120° Southeast 174 200 7,000  Level Chicago Center
Thu 12:03:50 AM 41.2569 -85.5572 120° Southeast 174 200 7,000  Level Chicago Center
Thu 12:04:50 AM 41.2325 -85.5036 121° Southeast 172 198 7,000  Level Chicago Center
Thu 12:05:51 AM 41.2072 -85.4483 121° Southeast 174 200 7,000  Level Chicago Center
Thu 12:06:51 AM 41.1836 -85.3956 121° Southeast 169 194 7,000  Level Chicago Center
Thu 12:07:52 AM 41.1581 -85.3383 121° Southeast 177 204 7,000  Level Chicago Center
Thu 12:08:52 AM 41.1339 -85.2853 121° Southeast 173 199 7,000  Level Chicago Center
Thu 12:09:53 AM 41.1033 -85.2208 122° Southeast 172 198 7,000  Level Chicago Center
Thu 12:10:53 AM 41.0794 -85.1650 120° Southeast 173 199 7,000  Level Chicago Center
Thu 12:11:54 AM 41.0553 -85.1122 121° Southeast 172 198 7,000  Level Chicago Center
Thu 12:12:54 AM 41.0297 -85.0597 123° Southeast 170 196 7,000  Level Chicago Center
Thu 12:13:55 AM 41.0056 -85.0036 120° Southeast 174 200 7,000  Level Chicago Center
Thu 12:14:55 AM 40.9797 -84.9497 122° Southeast 174 200 7,000  Level Chicago Center
Thu 12:15:56 AM 40.9547 -84.8956 121° Southeast 174 200 7,000  Level Chicago Center
Thu 12:16:56 AM 40.9303 -84.8422 121° Southeast 172 198 7,000  Level Chicago Center
Thu 12:17:57 AM 40.9067 -84.7886 120° Southeast 171 197 7,000  Level Chicago Center
Thu 12:18:57 AM 40.8814 -84.7347 122° Southeast 171 197 7,000  Level Chicago Center
Thu 12:19:58 AM 40.8567 -84.6822 122° Southeast 170 196 7,000  Level Chicago Center
Thu 12:20:58 AM 40.8319 -84.6289 121° Southeast 171 197 7,000  Level Chicago Center
Thu 12:21:58 AM 40.8075 -84.5756 121° Southeast 170 196 7,000  Level Chicago Center
Thu 12:22:59 AM 40.7828 -84.5222 121° Southeast 171 197 7,000  Level Chicago Center
Thu 12:24:16 AM 40.7483 -84.4483 122° Southeast 170 196 7,000  Level Chicago Center
Thu 12:25:16 AM 40.7239 -84.3947 121° Southeast 170 196 7,000 64 Level Chicago Center
Thu 12:25:50 AM 40.7061 -84.3672 130° Southeast 170 196 7,100 115 Climbing Indianapolis Center
Thu 12:26:08 AM 40.7008 -84.3553 120° Southeast 170 196 7,100  Level Indianapolis Center
Thu 12:27:08 AM 40.6739 -84.2967 121° Southeast 171 197 7,100  Level Indianapolis Center
Thu 12:28:03 AM 40.6522 -84.2525 123° Southeast 171 197 7,100  Level Indianapolis Center
Thu 12:28:22 AM 40.6494 -84.2394 106° East 170 196 7,100  Level Indianapolis Center
Thu 12:29:04 AM 40.6256 -84.1939 125° Southeast 171 197 7,100  Level Indianapolis Center
Thu 12:29:23 AM 40.6228 -84.1861 115° Southeast 171 197 7,100  Level Indianapolis Center
Thu 12:30:04 AM 40.6003 -84.1408 123° Southeast 172 198 7,100  Level Indianapolis Center
Thu 12:30:24 AM 40.5975 -84.1333 116° Southeast 169 194 7,100  Level Indianapolis Center
Thu 12:31:05 AM 40.5750 -84.0881 123° Southeast 172 198 7,100  Level Indianapolis Center
Thu 12:31:24 AM 40.5711 -84.0792 120° Southeast 174 200 7,100  Level Indianapolis Center
Thu 12:32:05 AM 40.5497 -84.0353 123° Southeast 173 199 7,100  Level Indianapolis Center
Thu 12:32:25 AM 40.5461 -84.0239 113° Southeast 175 201 7,100  Level Indianapolis Center
Thu 12:33:06 AM 40.5244 -83.9825 125° Southeast 173 199 7,100  Level Indianapolis Center
Thu 12:33:25 AM 40.5211 -83.9708 111° Southeast 171 197 7,100  Level Indianapolis Center
Thu 12:34:07 AM 40.4992 -83.9300 125° Southeast 172 198 7,100  Level Indianapolis Center
Thu 12:34:26 AM 40.4947 -83.9164 113° Southeast 173 199 7,100  Level Indianapolis Center
Thu 12:35:07 AM 40.4736 -83.8772 125° Southeast 171 197 7,100  Level Indianapolis Center
Thu 12:35:26 AM 40.4700 -83.8625 108° East 173 199 7,100  Level Indianapolis Center
Thu 12:36:14 AM 40.4447 -83.8158 125° Southeast 174 200 7,100  Level Indianapolis Center
Thu 12:37:14 AM 40.4197 -83.7606 121° Southeast 172 198 7,100  Level Indianapolis Center
Thu 12:38:28 AM 40.3914 -83.7003 122° Southeast 175 201 7,100 -49 Level Indianapolis Center
Thu 12:39:16 AM 40.3686 -83.6556 124° Southeast 171 197 7,000 -278 Descending Indianapolis Center
Thu 12:40:16 AM 40.3414 -83.6003 123° Southeast 179 206 6,600 -378 Descending Indianapolis Center
Thu 12:41:23 AM 40.3086 -83.5331 123° Southeast 192 221 6,200 -422 Descending Indianapolis Center
Thu 12:42:24 AM 40.2794 -83.4722 122° Southeast 192 221 5,700 -425 Descending Indianapolis Center
Thu 12:43:30 AM 40.2503 -83.4111 122° Southeast 187 215 5,300 -476 Descending Indianapolis Center
Thu 12:44:30 AM 40.2264 -83.3575 120° Southeast 183 211 4,700 -500 Descending Indianapolis Center
Thu 12:45:30 AM 40.1992 -83.3022 123° Southeast 180 207 4,300 -545 Descending Indianapolis Center
Thu 12:46:31 AM 40.1722 -83.2469 123° Southeast 179 206 3,600 -545 Descending Indianapolis Center
Thu 12:47:31 AM 40.1453 -83.1917 123° Southeast 178 205 3,200 -248 Descending Indianapolis Center
Thu 12:48:32 AM 40.1078 -83.1636 150° Southeast 168 193 3,100 -51 Descending Indianapolis Center
Thu 12:49:28 AM 40.0633 -83.1514 168° South 154 177 3,100  Level Indianapolis Center
Thu 12:50:28 AM 40.0297 -83.1256 150° Southeast 142 163 3,100  Level Indianapolis Center
Thu 12:51:29 AM 40.0050 -83.0875 130° Southeast 142 163 3,100 -103 Level Indianapolis Center
Thu 12:52:24 AM 40.0019 -83.0408 95° East 129 148 2,900 -440 Descending Indianapolis Center
Thu 12:53:18 AM 40.0006 -83.0025 93° East 120 138 2,300 -696 Descending Indianapolis Center
Thu 12:53:33 AM 39.9997 -82.9925 96° East 126 145 2,100 -590 Descending Indianapolis Center
Thu 12:54:19 AM 39.9989 -82.9642 92° East 107 123 1,700 -509 Descending Indianapolis Center
Thu 12:55:19 AM 39.9969 -82.9314 94° East 90 104 1,200 -400 Descending Indianapolis Center
Thu 12:55:34 AM 39.9961 -82.9269 104° East 103 119 1,200  Level Indianapolis Center
Thu 12:57:00 AM 39.9980 -82.8920 123° Southeast  Level Estimated
Thu 01:04:00 AM 39.9980 -82.8920 123° Southeast  Level Estimated

Login

Don't have an account? Register now (free) for customized features, flight alerts, and more!